createdAt,value
2023-01-29T00:01:43.386Z,67.70
2023-01-29T00:04:12.886Z,67.28
2023-01-29T00:06:40.884Z,66.90
2023-01-29T00:09:08.817Z,66.93
2023-01-29T00:11:37.105Z,67.71
2023-01-29T00:14:05.079Z,66.33
2023-01-29T00:16:33.006Z,67.16
2023-01-29T00:19:02.283Z,67.43
2023-01-29T00:21:32.156Z,67.40
2023-01-29T00:24:00.690Z,67.28
2023-01-29T00:26:28.930Z,67.49
2023-01-29T00:29:00.461Z,67.73
2023-01-29T00:31:28.480Z,67.86
2023-01-29T00:33:56.421Z,68.05
2023-01-29T00:36:24.846Z,68.03
2023-01-29T00:38:58.765Z,66.62
2023-01-29T00:41:46.099Z,67.12
2023-01-29T00:44:31.449Z,67.37
2023-01-29T00:46:59.820Z,67.99
2023-01-29T00:49:27.691Z,67.84
2023-01-29T00:52:13.240Z,67.63
2023-01-29T00:54:42.603Z,67.46
2023-01-29T00:57:10.558Z,66.39
2023-01-29T00:59:38.884Z,66.47
2023-01-29T01:02:24.371Z,66.52
2023-01-29T01:04:52.199Z,66.93
2023-01-29T01:07:20.042Z,67.49
2023-01-29T01:10:06.511Z,67.23
2023-01-29T01:12:35.033Z,66.98
2023-01-29T01:15:02.848Z,66.71
2023-01-29T01:17:30.887Z,66.95
2023-01-29T01:19:58.734Z,67.32
2023-01-29T01:22:26.551Z,62.74
2023-01-29T01:24:55.746Z,64.93
2023-01-29T01:27:23.584Z,65.54
2023-01-29T01:29:51.440Z,65.91
2023-01-29T01:32:19.300Z,66.38
2023-01-29T01:34:47.138Z,66.90
2023-01-29T01:37:14.952Z,66.59
2023-01-29T01:39:42.786Z,66.41
2023-01-29T01:42:14.425Z,66.14
2023-01-29T01:45:08.081Z,66.73
2023-01-29T01:47:40.119Z,67.34
2023-01-29T01:50:13.696Z,68.08
2023-01-29T01:52:46.205Z,67.16
2023-01-29T01:55:18.269Z,67.23
2023-01-29T01:57:51.897Z,66.90
2023-01-29T02:00:23.173Z,67.51
2023-01-29T02:03:08.617Z,68.26
2023-01-29T02:05:55.598Z,66.06
2023-01-29T02:08:48.483Z,67.33
2023-01-29T02:11:17.000Z,68.22
2023-01-29T02:13:46.337Z,68.62
2023-01-29T02:16:14.142Z,64.41
2023-01-29T02:18:41.969Z,61.25
2023-01-29T02:21:29.090Z,61.25
2023-01-29T02:24:27.024Z,64.21
2023-01-29T02:27:07.604Z,65.32
2023-01-29T02:29:49.175Z,66.04
2023-01-29T02:32:25.539Z,66.89
2023-01-29T02:35:24.801Z,65.79
2023-01-29T02:37:58.628Z,65.35
2023-01-29T02:40:32.219Z,65.32
2023-01-29T02:43:09.402Z,65.17
2023-01-29T02:45:48.384Z,64.89
2023-01-29T02:48:20.666Z,65.37
2023-01-29T02:50:55.035Z,65.60
2023-01-29T02:53:28.765Z,67.36
2023-01-29T02:56:01.204Z,66.67
2023-01-29T02:58:35.587Z,66.18
2023-01-29T03:01:09.935Z,65.75
2023-01-29T03:03:41.573Z,65.84
2023-01-29T03:06:20.713Z,66.16
2023-01-29T03:08:55.476Z,66.92
2023-01-29T03:11:23.636Z,65.99
2023-01-29T03:13:57.195Z,66.11
2023-01-29T03:16:32.326Z,64.81
2023-01-29T03:19:04.355Z,64.27
2023-01-29T03:21:55.323Z,63.55
2023-01-29T03:24:52.887Z,62.50
2023-01-29T03:27:46.396Z,63.25
2023-01-29T03:30:34.952Z,63.49
2023-01-29T03:33:27.224Z,63.21
2023-01-29T03:36:00.805Z,63.49
2023-01-29T03:38:29.738Z,63.00
2023-01-29T03:41:01.230Z,62.50
2023-01-29T03:43:36.309Z,62.61
2023-01-29T03:46:09.769Z,61.79
2023-01-29T03:48:45.642Z,62.07
2023-01-29T03:51:23.881Z,62.90
2023-01-29T03:53:58.950Z,62.76
2023-01-29T03:56:40.623Z,62.15
2023-01-29T03:59:20.621Z,62.51
2023-01-29T04:02:19.249Z,62.83
2023-01-29T04:04:53.151Z,63.79
2023-01-29T04:07:29.720Z,63.73
2023-01-29T04:10:07.670Z,63.58
2023-01-29T04:12:42.074Z,63.62
2023-01-29T04:15:14.700Z,63.76
2023-01-29T04:17:46.826Z,63.67
2023-01-29T04:20:24.666Z,60.62
2023-01-29T04:22:53.387Z,58.61
2023-01-29T04:25:26.518Z,59.87
2023-01-29T04:28:06.018Z,61.22
2023-01-29T04:30:44.853Z,61.86
2023-01-29T04:33:24.706Z,61.31
2023-01-29T04:36:08.331Z,60.86
2023-01-29T04:38:48.444Z,60.83
2023-01-29T04:41:22.969Z,60.75
2023-01-29T04:44:01.136Z,60.77
2023-01-29T04:46:38.162Z,60.47
2023-01-29T04:49:17.571Z,60.63
2023-01-29T04:51:52.747Z,61.21
2023-01-29T04:54:32.906Z,60.84
2023-01-29T04:57:09.958Z,60.52
2023-01-29T04:59:42.482Z,60.59
2023-01-29T05:02:13.120Z,60.72
2023-01-29T05:04:43.681Z,60.40
2023-01-29T05:07:15.337Z,60.25
2023-01-29T05:09:45.937Z,60.42
2023-01-29T05:12:16.917Z,60.53
2023-01-29T05:14:47.531Z,60.44
2023-01-29T05:17:17.507Z,60.14
2023-01-29T05:19:46.830Z,61.34
2023-01-29T05:22:18.712Z,61.59
2023-01-29T05:24:46.565Z,61.01
2023-01-29T05:27:36.938Z,58.50
2023-01-29T05:30:05.881Z,60.59
2023-01-29T05:32:33.733Z,60.86
2023-01-29T05:35:01.507Z,61.50
2023-01-29T05:37:30.652Z,60.38
2023-01-29T05:39:58.447Z,60.95
2023-01-29T05:42:26.353Z,59.97
2023-01-29T05:44:54.295Z,60.45
2023-01-29T05:47:22.605Z,61.03
2023-01-29T05:49:50.341Z,61.37
2023-01-29T05:52:18.078Z,61.47
2023-01-29T05:54:47.572Z,60.70
2023-01-29T05:57:16.076Z,60.28
2023-01-29T05:59:43.870Z,59.93
2023-01-29T06:02:11.667Z,59.87
2023-01-29T06:04:39.424Z,60.66
2023-01-29T06:07:07.176Z,60.47
2023-01-29T06:09:34.913Z,59.81
2023-01-29T06:12:06.132Z,59.46
2023-01-29T06:14:33.918Z,59.39
2023-01-29T06:17:01.696Z,56.56
2023-01-29T06:19:29.438Z,58.77
2023-01-29T06:21:57.205Z,59.88
2023-01-29T06:24:24.953Z,59.31
2023-01-29T06:26:52.724Z,59.03
2023-01-29T06:29:21.910Z,59.22
2023-01-29T06:31:49.807Z,61.00
2023-01-29T06:34:18.236Z,59.85
2023-01-29T06:36:45.954Z,60.29
2023-01-29T06:39:13.737Z,59.99
2023-01-29T06:41:41.489Z,59.34
2023-01-29T06:44:09.266Z,59.50
2023-01-29T06:46:38.591Z,59.86
2023-01-29T06:49:06.350Z,59.21
2023-01-29T06:51:34.208Z,59.09
2023-01-29T06:54:02.687Z,58.98
2023-01-29T06:56:30.451Z,59.08
2023-01-29T06:58:58.186Z,58.77
2023-01-29T07:01:35.772Z,58.91
2023-01-29T07:04:05.910Z,58.39
2023-01-29T07:06:33.860Z,58.75
2023-01-29T07:09:01.730Z,58.95
2023-01-29T07:11:29.690Z,58.24
2023-01-29T07:13:57.809Z,57.98
2023-01-29T07:16:26.323Z,57.52
2023-01-29T07:18:54.465Z,53.29
2023-01-29T07:21:23.736Z,52.01
2023-01-29T07:23:52.154Z,52.09
2023-01-29T07:26:20.041Z,51.01
2023-01-29T07:28:47.791Z,52.04
2023-01-29T07:31:15.850Z,51.76
2023-01-29T07:33:44.778Z,52.44
2023-01-29T07:36:13.837Z,52.82
2023-01-29T07:38:43.079Z,53.95
2023-01-29T07:41:12.725Z,52.56
2023-01-29T07:43:40.628Z,52.98
2023-01-29T07:46:08.527Z,53.84
2023-01-29T07:48:37.006Z,56.11
2023-01-29T07:51:04.975Z,56.45
2023-01-29T07:53:32.839Z,56.88
2023-01-29T07:56:01.968Z,57.60
2023-01-29T07:58:29.761Z,54.57
2023-01-29T08:00:57.636Z,52.92
2023-01-29T08:03:25.410Z,53.62
2023-01-29T08:05:53.146Z,53.18
2023-01-29T08:08:20.888Z,54.09
2023-01-29T08:10:48.652Z,54.89
2023-01-29T08:13:17.803Z,55.28
2023-01-29T08:15:46.111Z,55.25
2023-01-29T08:18:14.474Z,54.72
2023-01-29T08:20:42.231Z,55.45
2023-01-29T08:23:14.708Z,55.51
2023-01-29T08:25:42.877Z,55.21
2023-01-29T08:28:12.272Z,55.34
2023-01-29T08:30:41.512Z,53.74
2023-01-29T08:33:09.331Z,53.16
2023-01-29T08:35:37.455Z,53.27
2023-01-29T08:38:06.794Z,53.14
2023-01-29T08:40:35.611Z,52.71
2023-01-29T08:43:06.967Z,53.13
2023-01-29T08:45:37.911Z,52.92
2023-01-29T08:48:07.800Z,53.20
2023-01-29T08:50:36.284Z,52.99
2023-01-29T08:53:07.524Z,53.22
2023-01-29T08:55:37.005Z,53.48
2023-01-29T08:58:05.326Z,53.80
2023-01-29T09:00:33.482Z,53.58
2023-01-29T09:03:01.324Z,54.51
2023-01-29T09:05:30.620Z,54.29
2023-01-29T09:07:58.732Z,54.03
2023-01-29T09:10:26.817Z,53.23
2023-01-29T09:12:54.594Z,53.60
2023-01-29T09:15:22.412Z,53.56
2023-01-29T09:17:50.373Z,54.09
2023-01-29T09:20:19.463Z,53.85
2023-01-29T09:22:49.396Z,51.82
2023-01-29T09:25:17.666Z,52.14
2023-01-29T09:27:45.746Z,52.21
2023-01-29T09:30:14.332Z,51.34
2023-01-29T09:32:57.535Z,51.04
2023-01-29T09:35:25.503Z,50.61
2023-01-29T09:37:54.610Z,50.25
2023-01-29T09:40:27.647Z,49.89
2023-01-29T09:43:00.369Z,49.78
2023-01-29T09:45:29.661Z,49.17
2023-01-29T09:48:00.230Z,50.04
2023-01-29T09:50:32.390Z,51.14
2023-01-29T09:53:06.228Z,51.17
2023-01-29T09:55:39.910Z,51.10
2023-01-29T09:58:16.856Z,52.22
2023-01-29T10:00:51.559Z,51.42
2023-01-29T10:03:37.270Z,51.26
2023-01-29T10:06:19.809Z,52.00
2023-01-29T10:09:04.815Z,51.78
2023-01-29T10:11:44.603Z,51.79
2023-01-29T10:14:19.801Z,51.11
2023-01-29T10:17:03.842Z,50.35
2023-01-29T10:19:47.496Z,49.92
2023-01-29T10:22:40.341Z,49.83
2023-01-29T10:25:13.026Z,50.02
2023-01-29T10:27:47.042Z,49.34
2023-01-29T10:30:24.490Z,49.13
2023-01-29T10:32:53.293Z,50.11
2023-01-29T10:35:24.040Z,49.45
2023-01-29T10:37:54.536Z,49.17
2023-01-29T10:40:28.849Z,49.47
2023-01-29T10:43:04.523Z,50.11
2023-01-29T10:45:41.079Z,49.72
2023-01-29T10:48:30.054Z,48.38
2023-01-29T10:51:08.331Z,48.38
2023-01-29T10:53:49.789Z,49.07
2023-01-29T10:56:33.919Z,49.31
2023-01-29T10:59:06.186Z,49.54
2023-01-29T11:01:34.157Z,49.00
2023-01-29T11:04:04.084Z,48.99
2023-01-29T11:06:34.229Z,48.14
2023-01-29T11:09:09.094Z,48.53
2023-01-29T11:11:45.025Z,48.61
2023-01-29T11:14:17.292Z,47.82
2023-01-29T11:16:47.384Z,48.46
2023-01-29T11:19:16.585Z,48.44
2023-01-29T11:21:57.655Z,47.46
2023-01-29T11:24:26.090Z,47.59
2023-01-29T11:26:58.210Z,48.95
2023-01-29T11:29:33.885Z,47.84
2023-01-29T11:32:04.757Z,50.64
2023-01-29T11:34:32.615Z,51.91
2023-01-29T11:37:02.171Z,51.98
2023-01-29T11:39:31.713Z,52.43
2023-01-29T11:42:03.677Z,51.87
2023-01-29T11:44:34.192Z,50.75
2023-01-29T11:47:13.618Z,48.49
2023-01-29T11:49:45.950Z,47.66
2023-01-29T11:52:16.127Z,47.41
2023-01-29T11:54:48.344Z,47.66
2023-01-29T11:57:27.531Z,46.96
2023-01-29T11:59:57.565Z,47.84
2023-01-29T12:02:31.410Z,48.10
2023-01-29T12:05:02.245Z,47.53
2023-01-29T12:07:31.443Z,48.30
2023-01-29T12:10:00.415Z,48.77
2023-01-29T12:12:32.886Z,48.43
2023-01-29T12:15:16.971Z,48.37
2023-01-29T12:17:52.065Z,47.54
2023-01-29T12:20:26.483Z,48.63
2023-01-29T12:23:03.444Z,48.12
2023-01-29T12:25:41.560Z,48.31
2023-01-29T12:28:21.287Z,48.28
2023-01-29T12:31:00.938Z,47.71
2023-01-29T12:33:40.130Z,47.35
2023-01-29T12:36:14.726Z,47.60
2023-01-29T12:38:45.817Z,48.27
2023-01-29T12:41:29.506Z,48.20
2023-01-29T12:44:03.772Z,47.41
2023-01-29T12:46:38.992Z,47.79
2023-01-29T12:49:16.391Z,47.03
2023-01-29T12:51:54.306Z,48.16
2023-01-29T12:54:27.846Z,47.68
2023-01-29T12:57:01.397Z,47.62
2023-01-29T12:59:34.153Z,48.16
2023-01-29T13:02:13.022Z,48.89
2023-01-29T13:04:45.485Z,47.45
2023-01-29T13:07:18.818Z,47.66
2023-01-29T13:09:51.759Z,48.26
2023-01-29T13:12:23.895Z,47.33
2023-01-29T13:14:57.191Z,47.34
2023-01-29T13:17:31.485Z,46.97
2023-01-29T13:20:04.282Z,47.11
2023-01-29T13:22:37.821Z,47.31
2023-01-29T13:25:06.386Z,47.06
2023-01-29T13:27:36.274Z,47.70
2023-01-29T13:30:06.597Z,47.90
2023-01-29T13:32:36.929Z,48.51
2023-01-29T13:35:07.063Z,48.89
2023-01-29T13:37:37.310Z,49.27
2023-01-29T13:40:08.677Z,48.57
2023-01-29T13:42:43.604Z,49.13
2023-01-29T13:45:21.639Z,49.08
2023-01-29T13:47:51.030Z,50.11
2023-01-29T13:50:25.033Z,50.25
2023-01-29T13:52:58.936Z,50.32
2023-01-29T13:55:32.001Z,49.67
2023-01-29T13:58:00.874Z,49.29
2023-01-29T14:01:01.523Z,50.28
2023-01-29T14:04:09.984Z,49.82
2023-01-29T14:06:52.088Z,50.51
2023-01-29T14:09:34.659Z,49.82
2023-01-29T14:12:02.579Z,50.55
2023-01-29T14:15:00.035Z,49.80
2023-01-29T14:17:30.386Z,49.21
2023-01-29T14:20:03.544Z,50.32
2023-01-29T14:22:33.957Z,50.59
2023-01-29T14:25:06.009Z,51.30
2023-01-29T14:27:35.583Z,50.81
2023-01-29T14:30:10.883Z,49.90
2023-01-29T14:32:41.484Z,50.62
2023-01-29T14:35:20.209Z,53.17
2023-01-29T14:37:51.538Z,53.36
2023-01-29T14:40:23.693Z,52.66
2023-01-29T14:42:58.882Z,54.06
2023-01-29T14:45:28.947Z,53.21
2023-01-29T14:48:18.608Z,54.03
2023-01-29T14:51:07.946Z,52.79
2023-01-29T14:53:54.152Z,51.45
2023-01-29T14:56:28.728Z,51.60
2023-01-29T14:59:13.292Z,50.35
2023-01-29T15:01:48.095Z,50.49
2023-01-29T15:04:24.155Z,50.07
2023-01-29T15:06:56.623Z,51.13
2023-01-29T15:09:37.084Z,50.88
2023-01-29T15:12:15.300Z,50.27
2023-01-29T15:14:47.892Z,54.39
2023-01-29T15:17:23.061Z,51.08
2023-01-29T15:19:52.213Z,50.21
2023-01-29T15:22:22.295Z,49.83
2023-01-29T15:25:05.177Z,50.18
2023-01-29T15:27:33.292Z,50.11
2023-01-29T15:30:04.040Z,49.87
2023-01-29T15:32:34.961Z,53.72
2023-01-29T15:35:09.495Z,54.52
2023-01-29T15:37:38.054Z,50.70
2023-01-29T15:40:16.220Z,50.66
2023-01-29T15:42:46.636Z,50.66
2023-01-29T15:45:25.853Z,50.56
2023-01-29T15:47:55.985Z,50.20
2023-01-29T15:50:25.400Z,49.78
2023-01-29T15:52:55.456Z,49.73
2023-01-29T15:55:24.830Z,49.72
2023-01-29T15:57:53.163Z,49.88
2023-01-29T16:00:24.968Z,49.76
2023-01-29T16:02:52.904Z,50.15
2023-01-29T16:05:24.769Z,50.86
2023-01-29T16:07:56.489Z,49.90
2023-01-29T16:10:27.580Z,50.70
2023-01-29T16:12:56.292Z,50.96
2023-01-29T16:15:33.498Z,51.17
2023-01-29T16:18:03.455Z,50.95
2023-01-29T16:20:39.770Z,51.15
2023-01-29T16:23:18.289Z,51.21
2023-01-29T16:25:46.667Z,51.67
2023-01-29T16:28:14.511Z,51.57
2023-01-29T16:30:42.383Z,51.67
2023-01-29T16:33:14.160Z,51.08
2023-01-29T16:35:42.737Z,51.07
2023-01-29T16:38:25.959Z,51.06
2023-01-29T16:41:08.655Z,51.88
2023-01-29T16:43:50.928Z,52.60
2023-01-29T16:46:26.331Z,52.89
2023-01-29T16:48:55.012Z,52.58
2023-01-29T16:51:27.030Z,51.72
2023-01-29T16:54:02.950Z,53.09
2023-01-29T16:56:33.611Z,53.33
2023-01-29T16:59:04.316Z,53.65
2023-01-29T17:01:33.434Z,53.39
2023-01-29T17:04:07.605Z,54.06
2023-01-29T17:06:36.319Z,53.28
2023-01-29T17:09:06.964Z,52.88
2023-01-29T17:11:39.478Z,54.19
2023-01-29T17:14:08.806Z,52.94
2023-01-29T17:16:38.168Z,53.62
2023-01-29T17:19:17.770Z,53.56
2023-01-29T17:21:45.700Z,54.31
2023-01-29T17:24:14.895Z,53.20
2023-01-29T17:26:43.246Z,54.31
2023-01-29T17:29:15.428Z,54.00
2023-01-29T17:31:43.410Z,54.38
2023-01-29T17:34:14.325Z,53.78
2023-01-29T17:36:42.358Z,53.28
2023-01-29T17:39:20.101Z,54.15
2023-01-29T17:41:50.625Z,54.20
2023-01-29T17:44:18.562Z,53.90
2023-01-29T17:46:47.420Z,53.51
2023-01-29T17:49:23.355Z,54.87
2023-01-29T17:51:51.558Z,54.74
2023-01-29T17:54:21.566Z,53.95
2023-01-29T17:56:49.665Z,55.01
2023-01-29T17:59:19.207Z,54.02
2023-01-29T18:01:48.206Z,53.87
2023-01-29T18:04:16.317Z,53.38
2023-01-29T18:06:46.352Z,53.98
2023-01-29T18:09:14.762Z,54.01
2023-01-29T18:11:44.133Z,53.67
2023-01-29T18:14:14.043Z,54.96
2023-01-29T18:16:44.018Z,53.44
2023-01-29T18:19:15.559Z,54.63
2023-01-29T18:21:43.453Z,52.69
2023-01-29T18:24:11.185Z,53.16
2023-01-29T18:26:39.247Z,54.04
2023-01-29T18:29:08.657Z,54.17
2023-01-29T18:31:36.632Z,54.87
2023-01-29T18:34:04.669Z,55.15
2023-01-29T18:36:32.496Z,55.07
2023-01-29T18:39:00.219Z,55.61
2023-01-29T18:41:27.972Z,56.37
2023-01-29T18:43:55.774Z,56.65
2023-01-29T18:46:25.118Z,56.77
2023-01-29T18:48:52.901Z,56.79
2023-01-29T18:51:20.686Z,55.76
2023-01-29T18:53:50.907Z,56.56
2023-01-29T18:56:19.280Z,56.17
2023-01-29T18:58:51.968Z,57.26
2023-01-29T19:01:21.136Z,55.83
2023-01-29T19:03:50.305Z,55.55
2023-01-29T19:06:18.086Z,54.54
2023-01-29T19:08:47.314Z,55.98
2023-01-29T19:11:15.178Z,55.98
2023-01-29T19:13:43.139Z,56.25
2023-01-29T19:16:12.599Z,56.08
2023-01-29T19:18:40.507Z,57.04
2023-01-29T19:21:11.840Z,57.36
2023-01-29T19:23:39.801Z,58.65
2023-01-29T19:26:08.395Z,60.01
2023-01-29T19:28:36.375Z,60.63
2023-01-29T19:31:04.286Z,60.08
2023-01-29T19:33:32.105Z,60.59
2023-01-29T19:36:00.720Z,61.10
2023-01-29T19:38:33.341Z,61.33
2023-01-29T19:41:01.310Z,60.85
2023-01-29T19:43:30.488Z,61.87
2023-01-29T19:45:59.319Z,61.94
2023-01-29T19:48:27.737Z,62.24
2023-01-29T19:50:56.916Z,62.06
2023-01-29T19:53:25.586Z,60.17
2023-01-29T19:56:02.249Z,60.50
2023-01-29T19:58:30.890Z,61.38
2023-01-29T20:00:59.877Z,60.33
2023-01-29T20:03:29.434Z,62.18
2023-01-29T20:05:57.284Z,64.94
2023-01-29T20:08:25.122Z,65.40
2023-01-29T20:10:52.893Z,67.66
2023-01-29T20:13:22.019Z,67.78
2023-01-29T20:15:51.208Z,64.90
2023-01-29T20:18:19.941Z,67.31
2023-01-29T20:20:49.867Z,66.40
2023-01-29T20:23:35.299Z,67.82
2023-01-29T20:26:05.163Z,68.49
2023-01-29T20:28:34.559Z,69.38
2023-01-29T20:31:02.770Z,69.33
2023-01-29T20:33:31.108Z,67.92
2023-01-29T20:36:00.261Z,66.74
2023-01-29T20:38:31.403Z,66.70
2023-01-29T20:41:04.809Z,65.61
2023-01-29T20:43:34.310Z,65.81
2023-01-29T20:46:02.758Z,65.49
2023-01-29T20:48:31.088Z,65.76
2023-01-29T20:51:04.459Z,65.93
2023-01-29T20:53:32.201Z,66.00
2023-01-29T20:56:00.107Z,65.32
2023-01-29T20:58:28.540Z,65.80
2023-01-29T21:00:57.903Z,65.04
2023-01-29T21:03:25.704Z,65.70
2023-01-29T21:05:54.272Z,65.16
2023-01-29T21:08:22.119Z,66.05
2023-01-29T21:10:50.576Z,65.89
2023-01-29T21:13:18.297Z,66.96
2023-01-29T21:15:46.431Z,67.30
2023-01-29T21:18:15.627Z,65.52
2023-01-29T21:20:43.400Z,65.82
2023-01-29T21:23:11.595Z,64.84
2023-01-29T21:25:39.621Z,64.10
2023-01-29T21:28:07.916Z,66.33
2023-01-29T21:30:35.747Z,67.09
2023-01-29T21:33:03.627Z,68.06
2023-01-29T21:35:33.104Z,68.45
2023-01-29T21:38:00.905Z,67.69
2023-01-29T21:40:30.470Z,68.38
2023-01-29T21:43:12.354Z,69.34
2023-01-29T21:45:41.028Z,69.53
2023-01-29T21:48:09.389Z,69.51
2023-01-29T21:50:38.961Z,69.11
2023-01-29T21:53:06.783Z,68.89
2023-01-29T21:55:34.652Z,70.02
2023-01-29T21:58:02.401Z,69.77
2023-01-29T22:00:30.174Z,69.86
2023-01-29T22:02:57.989Z,69.70
2023-01-29T22:05:26.446Z,69.62
2023-01-29T22:07:56.430Z,69.96
2023-01-29T22:10:24.159Z,69.83
2023-01-29T22:12:51.990Z,69.57
2023-01-29T22:15:21.125Z,69.97
2023-01-29T22:17:50.840Z,69.31
2023-01-29T22:20:19.520Z,70.58
2023-01-29T22:22:47.529Z,70.95
2023-01-29T22:25:19.938Z,71.08
2023-01-29T22:27:47.851Z,69.52
2023-01-29T22:30:16.190Z,70.13
2023-01-29T22:32:44.239Z,70.42
2023-01-29T22:35:12.013Z,70.55
2023-01-29T22:37:39.788Z,69.88
2023-01-29T22:40:08.726Z,70.68
2023-01-29T22:42:37.864Z,68.92
2023-01-29T22:45:06.257Z,70.06
2023-01-29T22:47:34.271Z,72.56
2023-01-29T22:50:02.019Z,73.14
2023-01-29T22:52:38.276Z,73.52
2023-01-29T22:55:08.798Z,70.93
2023-01-29T22:57:38.349Z,68.91
2023-01-29T23:00:09.927Z,70.93
2023-01-29T23:02:38.095Z,71.59
2023-01-29T23:05:06.866Z,72.51
2023-01-29T23:07:35.260Z,72.32
2023-01-29T23:10:03.419Z,71.77
2023-01-29T23:12:31.161Z,71.88
2023-01-29T23:15:00.451Z,70.85
2023-01-29T23:17:28.560Z,72.06
2023-01-29T23:19:56.563Z,72.91
2023-01-29T23:22:24.344Z,72.48
2023-01-29T23:24:53.016Z,73.44
2023-01-29T23:27:20.076Z,72.08
2023-01-29T23:29:49.192Z,71.92
2023-01-29T23:32:20.437Z,70.87
2023-01-29T23:34:48.193Z,72.24
2023-01-29T23:37:15.909Z,72.73
2023-01-29T23:39:43.611Z,73.11
2023-01-29T23:42:11.471Z,73.46
2023-01-29T23:44:40.229Z,73.28
2023-01-29T23:47:07.993Z,73.94
2023-01-29T23:49:37.337Z,73.61
2023-01-29T23:52:05.239Z,73.98
2023-01-29T23:54:33.134Z,74.55
2023-01-29T23:57:00.900Z,75.11
2023-01-29T23:59:28.978Z,74.49
